Time;durP1;ratioP1;P1;durP2;ratioP2;P2;SDS_P1;SDS_P2;PMS_P1;PMS_P2;Temp;Humidity;BMP_temperature;BMP_pressure;BME280_temperature;BME280_humidity;BME280_pressure;Samples;Min_cycle;Max_cycle;Signal;HPM_P1;HPM_P2
2023/04/04 00:00:15;;;;;;;1.58;1.00;;;14.60;57.80;;;;;;10335455;28;20030;-57
2023/04/04 00:05:16;;;;;;;1.38;0.80;;;14.60;57.90;;;;;;10323971;28;20782;-56
2023/04/04 00:10:17;;;;;;;1.95;0.95;;;14.60;57.80;;;;;;10323668;28;20034;-57
2023/04/04 00:15:17;;;;;;;1.08;0.70;;;14.50;58.60;;;;;;10323682;28;20105;-56
2023/04/04 00:20:18;;;;;;;2.25;0.70;;;14.50;58.30;;;;;;10323262;28;20370;-57
2023/04/04 00:25:19;;;;;;;1.30;0.70;;;14.50;58.00;;;;;;10305393;28;20033;-57
2023/04/04 00:30:20;;;;;;;2.80;1.55;;;14.50;58.00;;;;;;10323068;28;20687;-57
2023/04/04 00:35:21;;;;;;;1.23;0.63;;;14.50;58.20;;;;;;10323482;28;20023;-57
2023/04/04 00:40:22;;;;;;;2.38;1.30;;;14.40;58.10;;;;;;10321719;28;20050;-56
2023/04/04 00:45:23;;;;;;;2.47;0.77;;;14.40;57.60;;;;;;10322939;28;20537;-57
2023/04/04 00:50:23;;;;;;;1.33;0.63;;;14.40;57.90;;;;;;10322630;28;20042;-56
2023/04/04 00:55:25;;;;;;;2.33;0.82;;;14.40;57.50;;;;;;10323483;28;20029;-57
2023/04/04 01:00:26;;;;;;;2.13;0.93;;;14.40;57.50;;;;;;10332775;28;20032;-56
2023/04/04 01:05:27;;;;;;;1.98;0.80;;;14.40;57.30;;;;;;10322843;28;20081;-56
2023/04/04 01:10:30;;;;;;;1.38;0.90;;;14.40;57.20;;;;;;10321973;28;20034;-56
2023/04/04 01:15:31;;;;;;;3.22;2.15;;;14.40;57.40;;;;;;10322535;28;20031;-56
2023/04/04 01:20:36;;;;;;;2.30;0.95;;;14.30;57.40;;;;;;10321041;28;20085;-56
2023/04/04 01:25:36;;;;;;;1.92;0.70;;;14.30;57.00;;;;;;10321362;28;20058;-56
2023/04/04 01:30:39;;;;;;;1.17;0.73;;;14.30;57.20;;;;;;10320862;28;20070;-55
2023/04/04 01:35:59;;;;;;;1.77;0.90;;;14.30;57.00;;;;;;10325118;28;20018;-55
2023/04/04 01:41:07;;;;;;;;;;;14.30;56.90;;;;;;10313356;28;20615;-56
2023/04/04 01:46:07;;;;;;;2.40;0.90;;;14.40;58.70;;;;;;10329203;28;20336;-56
2023/04/04 01:51:08;;;;;;;2.90;0.75;;;14.60;58.40;;;;;;10327760;28;20030;-56
2023/04/04 01:56:09;;;;;;;1.40;0.75;;;14.70;57.40;;;;;;10328593;28;20019;-55
2023/04/04 02:01:09;;;;;;;2.85;0.80;;;14.90;56.90;;;;;;10339584;28;20117;-56
2023/04/04 02:06:10;;;;;;;1.88;0.77;;;15.00;56.60;;;;;;10326435;28;20049;-57
2023/04/04 02:11:11;;;;;;;2.05;0.90;;;15.10;56.50;;;;;;10327752;28;20044;-57
2023/04/04 02:16:12;;;;;;;1.48;0.68;;;15.40;56.20;;;;;;10328186;28;20531;-57
2023/04/04 02:21:13;;;;;;;1.98;0.63;;;15.80;55.00;;;;;;10327925;28;20137;-57
2023/04/04 02:26:13;;;;;;;1.83;0.93;;;16.00;54.20;;;;;;10327358;28;20050;-57
2023/04/04 02:31:14;;;;;;;1.45;0.80;;;16.20;53.70;;;;;;10327283;28;20049;-57
2023/04/04 02:36:15;;;;;;;2.10;0.63;;;16.40;53.30;;;;;;10326884;28;20068;-57
2023/04/04 02:41:15;;;;;;;3.63;1.00;;;16.50;53.10;;;;;;10327013;28;20100;-57
2023/04/04 02:46:16;;;;;;;1.25;0.60;;;16.50;52.90;;;;;;10326599;28;20077;-57
2023/04/04 02:51:17;;;;;;;1.45;0.63;;;16.60;52.80;;;;;;10341438;28;20041;-56
2023/04/04 02:56:18;;;;;;;1.40;0.70;;;16.60;52.80;;;;;;10326273;28;20494;-57
2023/04/04 03:01:19;;;;;;;2.03;0.85;;;16.60;52.60;;;;;;10335956;28;20109;-56
2023/04/04 03:06:19;;;;;;;0.95;0.52;;;16.70;52.50;;;;;;10325217;28;20070;-56
2023/04/04 03:11:20;;;;;;;1.45;0.73;;;16.70;52.50;;;;;;10325711;28;20125;-55
2023/04/04 03:16:21;;;;;;;1.80;0.77;;;16.70;52.40;;;;;;10325149;28;20019;-55
2023/04/04 03:21:22;;;;;;;2.25;0.90;;;16.80;52.30;;;;;;10325534;28;20030;-57
2023/04/04 03:26:22;;;;;;;2.05;0.80;;;16.80;52.30;;;;;;10324886;28;20036;-55
2023/04/04 03:31:23;;;;;;;1.02;0.50;;;16.80;52.30;;;;;;10324529;28;20042;-57
2023/04/04 03:36:24;;;;;;;1.70;0.57;;;16.70;52.30;;;;;;10322947;28;20400;-57
2023/04/04 03:41:24;;;;;;;2.67;0.80;;;16.80;53.10;;;;;;10322975;28;20105;-56
2023/04/04 03:46:25;;;;;;;4.10;1.08;;;16.80;53.20;;;;;;10321153;28;20038;-57
2023/04/04 03:51:26;;;;;;;3.38;0.70;;;16.70;53.50;;;;;;10320196;28;20374;-57
2023/04/04 03:56:27;;;;;;;2.38;0.80;;;16.70;53.60;;;;;;10321431;28;20023;-56
2023/04/04 04:01:28;;;;;;;2.58;0.73;;;16.60;53.60;;;;;;10333335;28;20029;-57
2023/04/04 04:06:28;;;;;;;1.60;0.90;;;16.50;53.80;;;;;;10319693;28;20136;-56
2023/04/04 04:11:29;;;;;;;1.95;0.82;;;16.40;54.00;;;;;;10320267;28;20609;-56
2023/04/04 04:16:31;;;;;;;1.83;0.80;;;16.30;54.00;;;;;;10320384;28;20359;-56
2023/04/04 04:21:32;;;;;;;1.95;0.90;;;16.30;54.10;;;;;;10319189;28;20043;-56
2023/04/04 04:26:32;;;;;;;1.58;0.70;;;16.30;54.00;;;;;;10320269;28;20505;-56
2023/04/04 04:31:33;;;;;;;2.35;0.90;;;16.30;53.70;;;;;;10320366;28;20303;-55
2023/04/04 04:36:35;;;;;;;2.75;1.02;;;16.30;53.70;;;;;;10319649;28;20085;-57
2023/04/04 04:41:35;;;;;;;1.35;0.80;;;16.30;53.60;;;;;;10319900;28;20025;-57
2023/04/04 04:46:36;;;;;;;1.58;0.80;;;16.30;53.60;;;;;;10319927;28;20050;-54
2023/04/04 04:51:37;;;;;;;1.23;0.80;;;16.30;53.60;;;;;;10317012;28;20412;-56
2023/04/04 04:56:38;;;;;;;1.27;0.88;;;16.30;53.50;;;;;;10318962;28;20069;-55
2023/04/04 05:01:39;;;;;;;2.75;0.93;;;16.30;53.60;;;;;;10322177;28;20405;-57
2023/04/04 05:06:39;;;;;;;2.42;0.85;;;16.40;53.40;;;;;;10320204;28;20057;-57
2023/04/04 05:11:40;;;;;;;5.47;2.05;;;16.40;53.30;;;;;;10327249;28;20416;-56
2023/04/04 05:16:41;;;;;;;2.50;1.05;;;16.30;54.00;;;;;;10326669;28;20125;-57
2023/04/04 05:21:42;;;;;;;2.67;1.10;;;16.40;54.00;;;;;;10329928;28;20076;-54
2023/04/04 05:26:42;;;;;;;6.20;1.25;;;16.50;54.00;;;;;;10328284;28;20049;-58
2023/04/04 05:31:43;;;;;;;4.25;1.80;;;16.50;54.40;;;;;;10329579;28;20129;-55
2023/04/04 05:36:44;;;;;;;7.20;1.50;;;16.40;55.10;;;;;;10329385;28;20049;-57
2023/04/04 05:41:46;;;;;;;4.07;1.42;;;16.50;55.10;;;;;;10329567;28;20019;-58
2023/04/04 05:46:46;;;;;;;11.82;3.47;;;16.40;55.90;;;;;;10327589;28;20381;-58
2023/04/04 05:51:47;;;;;;;7.57;1.90;;;16.40;55.50;;;;;;10329041;28;20134;-58
2023/04/04 05:56:48;;;;;;;10.00;2.05;;;16.30;55.50;;;;;;10328156;28;20097;-57
2023/04/04 06:01:48;;;;;;;15.50;3.20;;;16.30;55.50;;;;;;10330957;28;20030;-55
2023/04/04 06:06:49;;;;;;;12.30;2.40;;;16.20;55.90;;;;;;10326429;28;20052;-56
2023/04/04 06:11:50;;;;;;;8.32;2.85;;;16.20;55.60;;;;;;10327086;28;20458;-56
2023/04/04 06:16:51;;;;;;;13.88;2.45;;;16.20;55.40;;;;;;10328195;28;20023;-56
2023/04/04 06:21:51;;;;;;;11.38;1.85;;;16.10;55.50;;;;;;10326099;28;20117;-56
2023/04/04 06:26:52;;;;;;;9.93;2.38;;;16.10;54.90;;;;;;10326857;28;20689;-57
2023/04/04 06:31:53;;;;;;;9.60;2.75;;;16.20;54.90;;;;;;10326094;28;20066;-56
2023/04/04 06:36:53;;;;;;;10.02;2.30;;;16.10;54.80;;;;;;10327447;28;20781;-56
2023/04/04 06:41:54;;;;;;;7.82;2.28;;;16.10;54.90;;;;;;10324610;28;20100;-56
2023/04/04 06:46:55;;;;;;;11.30;2.55;;;16.10;55.30;;;;;;10300957;28;20777;-57
2023/04/04 06:51:55;;;;;;;6.05;1.60;;;16.10;55.10;;;;;;10324618;28;20110;-56
2023/04/04 06:56:56;;;;;;;11.13;1.77;;;16.10;55.10;;;;;;10325948;28;20022;-54
2023/04/04 07:01:57;;;;;;;5.38;1.80;;;16.10;54.90;;;;;;10342758;28;20024;-56
2023/04/04 07:06:57;;;;;;;8.27;1.98;;;16.10;55.00;;;;;;10323427;28;20038;-56
2023/04/04 07:11:58;;;;;;;3.35;1.50;;;16.10;55.10;;;;;;10324651;28;20062;-53
2023/04/04 07:16:59;;;;;;;3.72;1.40;;;16.20;55.10;;;;;;10323902;28;20553;-57
2023/04/04 07:21:59;;;;;;;5.85;1.38;;;16.20;55.00;;;;;;10323428;28;20156;-56
2023/04/04 07:27:00;;;;;;;8.60;1.92;;;16.20;55.00;;;;;;10323489;28;20105;-56
2023/04/04 07:32:01;;;;;;;2.80;1.33;;;16.10;55.10;;;;;;10324223;28;20092;-56
2023/04/04 07:37:01;;;;;;;6.15;1.73;;;16.10;55.10;;;;;;10324445;28;20054;-56
2023/04/04 07:42:02;;;;;;;6.38;1.40;;;16.00;55.30;;;;;;10324523;28;20106;-56
2023/04/04 07:47:03;;;;;;;4.85;2.17;;;16.00;55.20;;;;;;10324628;28;20390;-55
2023/04/04 07:52:03;;;;;;;3.80;1.40;;;16.00;55.20;;;;;;10307040;28;20141;-55
2023/04/04 07:57:04;;;;;;;3.13;1.30;;;16.00;55.10;;;;;;10324047;28;20045;-54
2023/04/04 08:02:05;;;;;;;3.85;1.60;;;16.00;55.20;;;;;;10328843;28;20101;-55
2023/04/04 08:07:06;;;;;;;5.70;1.33;;;16.00;55.30;;;;;;10321518;28;20050;-56
2023/04/04 08:12:06;;;;;;;4.10;1.55;;;16.10;55.30;;;;;;10324122;28;20046;-56
2023/04/04 08:17:07;;;;;;;5.82;1.30;;;16.10;55.20;;;;;;10322418;28;20104;-56
2023/04/04 08:22:08;;;;;;;3.17;1.02;;;16.00;55.60;;;;;;10323967;28;20026;-55
2023/04/04 08:27:09;;;;;;;2.63;1.20;;;16.00;55.70;;;;;;10323139;28;20050;-56
2023/04/04 08:32:10;;;;;;;2.53;1.38;;;15.90;55.80;;;;;;10323725;28;20033;-54
2023/04/04 08:37:11;;;;;;;5.68;1.10;;;15.90;55.90;;;;;;10321760;28;20022;-54
2023/04/04 08:42:15;;;;;;;8.70;1.55;;;15.80;56.30;;;;;;10322835;28;20040;-56
2023/04/04 08:47:17;;;;;;;3.97;1.35;;;15.80;56.30;;;;;;10328103;28;20074;-55
2023/04/04 08:52:19;;;;;;;5.57;1.70;;;15.80;55.90;;;;;;10329389;28;20069;-55
2023/04/04 08:57:20;;;;;;;3.55;0.90;;;15.70;55.30;;;;;;10325860;28;20509;-54
2023/04/04 09:02:36;;;;;;;3.63;1.60;;;15.60;55.50;;;;;;10336606;28;20031;-55
2023/04/04 09:07:37;;;;;;;3.40;1.15;;;15.60;55.60;;;;;;10325316;28;20042;-53
2023/04/04 09:12:46;;;;;;;2.40;1.40;;;15.60;55.70;;;;;;10328429;28;20474;-53
2023/04/04 09:17:47;;;;;;;3.30;1.58;;;15.50;56.00;;;;;;10326551;28;20026;-55
2023/04/04 09:22:48;;;;;;;5.45;1.27;;;15.50;56.10;;;;;;10327556;28;20363;-55
2023/04/04 09:27:52;;;;;;;2.72;0.75;;;15.40;56.40;;;;;;10327308;28;20113;-53
2023/04/04 09:32:53;;;;;;;2.58;1.17;;;15.40;56.60;;;;;;10327660;28;20332;-55
2023/04/04 09:37:54;;;;;;;2.75;1.20;;;15.40;56.70;;;;;;10327897;28;20030;-56
2023/04/04 09:42:59;;;;;;;3.22;1.90;;;15.40;56.80;;;;;;10327452;28;20026;-55
2023/04/04 09:48:01;;;;;;;2.55;0.95;;;15.50;56.60;;;;;;10327568;28;20429;-56
2023/04/04 09:53:02;;;;;;;2.78;1.30;;;15.50;56.60;;;;;;10327058;28;20037;-56
2023/04/04 09:58:15;;;;;;;4.03;1.20;;;15.50;56.80;;;;;;10325921;28;20442;-56
2023/04/04 10:03:17;;;;;;;2.42;0.90;;;15.50;56.70;;;;;;10336415;28;20023;-55
2023/04/04 10:08:21;;;;;;;2.88;1.00;;;15.50;57.00;;;;;;10326073;28;20262;-55
2023/04/04 10:13:30;;;;;;;1.60;0.93;;;15.40;57.20;;;;;;10327182;28;20500;-56
2023/04/04 10:18:33;;;;;;;2.23;0.93;;;15.40;57.30;;;;;;10325232;28;20025;-55
2023/04/04 10:23:35;;;;;;;2.30;0.77;;;15.40;57.40;;;;;;10325887;28;20257;-54
2023/04/04 10:28:36;;;;;;;2.47;1.17;;;15.40;57.50;;;;;;10324369;28;20121;-54
2023/04/04 10:33:59;;;;;;;3.70;1.25;;;15.40;57.50;;;;;;10325776;28;20031;-55
2023/04/04 10:39:12;;;;;;;1.70;1.30;;;15.50;57.40;;;;;;10324125;28;20073;-56
2023/04/04 10:44:36;;;;;;;2.50;1.08;;;15.50;57.30;;;;;;10325456;28;20113;-55
2023/04/04 10:49:38;;;;;;;1.70;0.88;;;15.50;57.60;;;;;;10325249;28;20050;-55
2023/04/04 10:54:43;;;;;;;3.45;0.98;;;15.40;57.30;;;;;;10323538;28;20023;-52
2023/04/04 11:00:00;;;;;;;1.58;0.70;;;15.50;57.50;;;;;;10334318;28;20022;-53
2023/04/04 11:05:31;;;;;;;1.52;0.77;;;15.50;57.60;;;;;;10311524;28;20133;-53
2023/04/04 11:10:40;;;;;;;2.40;0.95;;;15.40;57.70;;;;;;10316878;28;20042;-55
2023/04/04 11:15:58;;;;;;;2.65;1.05;;;15.50;57.40;;;;;;10323357;28;20165;-55
2023/04/04 11:21:05;;;;;;;2.97;1.08;;;15.50;57.10;;;;;;10323733;28;20038;-56
2023/04/04 11:26:07;;;;;;;2.65;0.93;;;15.50;57.30;;;;;;10319911;28;20069;-55
2023/04/04 11:31:17;;;;;;;1.98;0.98;;;15.50;57.20;;;;;;10323059;28;20113;-57
2023/04/04 11:36:44;;;;;;;2.22;1.00;;;15.50;57.50;;;;;;10322547;28;20093;-56
2023/04/04 11:42:10;;;;;;;2.83;1.05;;;15.50;57.50;;;;;;10323921;28;20417;-55
2023/04/04 11:47:12;;;;;;;2.10;0.90;;;15.50;57.60;;;;;;10313153;28;20056;-55
2023/04/04 11:52:15;;;;;;;5.18;1.40;;;15.50;57.60;;;;;;10345461;28;20046;-56
2023/04/04 11:57:20;;;;;;;1.65;0.90;;;15.50;57.60;;;;;;10325086;28;20037;-55
2023/04/04 12:02:33;;;;;;;1.85;0.95;;;15.60;57.40;;;;;;10334240;28;20500;-56
2023/04/04 12:07:34;;;;;;;3.67;1.02;;;15.60;57.40;;;;;;10332366;28;20811;-56
2023/04/04 12:12:38;;;;;;;3.03;1.17;;;15.60;57.30;;;;;;10322068;28;20035;-56
2023/04/04 12:17:41;;;;;;;5.18;1.00;;;15.60;57.10;;;;;;10323232;28;20026;-57
2023/04/04 12:22:42;;;;;;;3.35;1.27;;;15.60;57.10;;;;;;10334761;28;20026;-56
2023/04/04 12:27:43;;;;;;;5.60;2.20;;;15.70;56.40;;;;;;10323196;28;20014;-54
2023/04/04 12:32:48;;;;;;;8.90;1.33;;;15.70;55.30;;;;;;10319919;28;20117;-53
2023/04/04 12:38:12;;;;;;;5.03;1.52;;;15.70;55.80;;;;;;10321373;28;20022;-53
2023/04/04 12:43:16;;;;;;;5.75;1.83;;;15.70;55.70;;;;;;10320799;28;20054;-55
2023/04/04 12:48:17;;;;;;;6.30;1.88;;;15.60;55.20;;;;;;10320442;28;20062;-54
2023/04/04 12:53:23;;;;;;;6.60;1.83;;;15.70;55.60;;;;;;10320504;28;20050;-57
2023/04/04 12:58:25;;;;;;;4.45;1.48;;;15.70;55.70;;;;;;10319048;28;20236;-56
2023/04/04 13:03:27;;;;;;;5.18;1.58;;;15.70;55.30;;;;;;10318205;28;20109;-55
2023/04/04 13:08:28;;;;;;;3.78;1.10;;;15.70;55.30;;;;;;10325295;28;20057;-55
2023/04/04 13:13:41;;;;;;;3.47;1.08;;;15.70;55.20;;;;;;10326851;28;20025;-57
2023/04/04 13:18:43;;;;;;;3.50;1.20;;;15.70;55.20;;;;;;10319167;28;20577;-54
2023/04/04 13:23:43;;;;;;;12.20;1.55;;;15.70;55.30;;;;;;10325571;28;20122;-54
2023/04/04 13:28:44;;;;;;;3.58;1.08;;;15.70;55.30;;;;;;10321764;28;20359;-56
2023/04/04 13:33:45;;;;;;;5.45;1.92;;;15.70;55.40;;;;;;10327696;28;20454;-55
2023/04/04 13:38:45;;;;;;;2.72;1.30;;;15.70;55.40;;;;;;10326287;28;20058;-55
2023/04/04 13:43:46;;;;;;;2.80;0.93;;;15.80;55.40;;;;;;10327043;28;20084;-55
2023/04/04 13:48:47;;;;;;;2.78;1.10;;;15.80;55.40;;;;;;10326345;28;20173;-54
2023/04/04 13:53:47;;;;;;;2.17;1.00;;;15.70;55.70;;;;;;10327117;28;20797;-54
2023/04/04 13:58:49;;;;;;;2.38;0.90;;;15.70;55.70;;;;;;10329029;28;20700;-56
2023/04/04 14:03:50;;;;;;;1.30;0.70;;;15.70;56.40;;;;;;10332073;28;20555;-54
2023/04/04 14:08:51;;;;;;;2.13;1.05;;;15.80;55.90;;;;;;10335618;28;20027;-56
2023/04/04 14:13:52;;;;;;;4.82;1.15;;;15.80;55.90;;;;;;10326722;28;20018;-57
2023/04/04 14:18:52;;;;;;;6.47;1.50;;;15.80;55.60;;;;;;10327773;28;20109;-54
2023/04/04 14:23:53;;;;;;;2.63;1.20;;;15.90;56.00;;;;;;10342338;28;20127;-55
2023/04/04 14:28:54;;;;;;;7.50;1.13;;;15.90;55.00;;;;;;10326685;28;20034;-57
2023/04/04 14:33:54;;;;;;;5.50;1.42;;;16.00;54.80;;;;;;10325876;28;20056;-56
2023/04/04 14:38:55;;;;;;;7.35;1.50;;;16.00;54.90;;;;;;10326474;28;20117;-53
2023/04/04 14:43:56;;;;;;;4.70;2.03;;;16.00;55.30;;;;;;10326609;28;20513;-55
2023/04/04 14:48:57;;;;;;;5.13;1.63;;;16.00;55.60;;;;;;10326475;28;20066;-57
2023/04/04 14:53:57;;;;;;;6.70;2.30;;;16.00;55.80;;;;;;10335873;28;20061;-57
2023/04/04 14:59:00;;;;;;;9.45;1.48;;;16.10;55.90;;;;;;10332789;28;20109;-56
2023/04/04 15:04:01;;;;;;;5.85;1.58;;;16.10;56.30;;;;;;10331859;28;20186;-54
2023/04/04 15:09:04;;;;;;;10.05;3.50;;;16.10;56.50;;;;;;10335510;28;20243;-52
2023/04/04 15:14:05;;;;;;;29.98;12.95;;;16.00;56.00;;;;;;10326144;28;20076;-52
2023/04/04 15:19:06;;;;;;;26.75;12.75;;;16.00;55.60;;;;;;10325880;28;20676;-56
2023/04/04 15:24:07;;;;;;;22.55;10.32;;;16.00;55.70;;;;;;10325201;28;20469;-54
2023/04/04 15:29:07;;;;;;;21.02;7.63;;;15.90;55.90;;;;;;10324863;28;20128;-53
2023/04/04 15:34:08;;;;;;;17.27;6.63;;;15.90;55.50;;;;;;10322006;28;20094;-51
2023/04/04 15:39:10;;;;;;;24.83;6.65;;;15.90;55.40;;;;;;10338955;28;20050;-50
2023/04/04 15:44:10;;;;;;;21.23;6.18;;;15.80;55.60;;;;;;10323916;28;20046;-50
2023/04/04 15:49:11;;;;;;;22.40;5.38;;;15.70;55.70;;;;;;10323589;28;20133;-55
2023/04/04 15:54:12;;;;;;;17.58;4.35;;;15.80;56.00;;;;;;10321422;28;20073;-55
2023/04/04 15:59:12;;;;;;;12.27;4.68;;;15.80;56.40;;;;;;10327729;28;20455;-54
2023/04/04 16:04:13;;;;;;;25.38;4.93;;;15.80;55.40;;;;;;10322612;28;20618;-55
2023/04/04 16:09:14;;;;;;;14.50;5.05;;;16.00;60.00;;;;;;10323784;28;20412;-57
2023/04/04 16:14:15;;;;;;;21.20;5.82;;;16.20;59.70;;;;;;10323777;28;20429;-56
2023/04/04 16:19:16;;;;;;;13.73;4.30;;;16.30;59.50;;;;;;10306624;28;20098;-54
2023/04/04 16:24:17;;;;;;;19.10;4.57;;;16.30;59.40;;;;;;10323496;28;20023;-56
2023/04/04 16:29:19;;;;;;;26.02;5.97;;;16.30;58.70;;;;;;10322529;28;20425;-55
2023/04/04 16:34:19;;;;;;;23.33;6.05;;;16.00;58.80;;;;;;10322781;28;20363;-54
2023/04/04 16:39:21;;;;;;;18.73;6.40;;;16.00;59.80;;;;;;10323514;28;20038;-54
2023/04/04 16:44:22;;;;;;;36.05;6.25;;;16.00;61.30;;;;;;10322776;28;20033;-54
2023/04/04 16:49:23;;;;;;;22.25;5.50;;;16.00;60.50;;;;;;10323545;28;20470;-55
2023/04/04 16:54:23;;;;;;;18.15;4.50;;;16.00;59.40;;;;;;10333644;28;20096;-56
2023/04/04 16:59:24;;;;;;;25.48;5.70;;;15.80;58.50;;;;;;10336165;28;20101;-57
2023/04/04 17:04:25;;;;;;;19.27;4.97;;;15.70;59.50;;;;;;10330130;28;20073;-55
2023/04/04 17:09:26;;;;;;;23.15;6.47;;;15.80;61.10;;;;;;10335187;28;20062;-55
2023/04/04 17:14:28;;;;;;;30.60;7.15;;;15.90;60.90;;;;;;10331254;28;20019;-56
2023/04/04 17:19:30;;;;;;;37.85;6.82;;;15.80;60.10;;;;;;10330976;28;20033;-55
2023/04/04 17:24:31;;;;;;;30.27;6.80;;;15.70;60.10;;;;;;10330880;28;20033;-55
2023/04/04 17:29:31;;;;;;;28.52;5.85;;;15.60;60.40;;;;;;10329876;28;20716;-57
2023/04/04 17:34:32;;;;;;;31.02;5.47;;;15.70;60.70;;;;;;10329566;28;20058;-55
2023/04/04 17:39:33;;;;;;;29.95;7.28;;;15.70;61.00;;;;;;10330033;28;20046;-56
2023/04/04 17:44:33;;;;;;;18.08;5.93;;;15.70;60.40;;;;;;10329135;28;20121;-55
2023/04/04 17:49:36;;;;;;;15.73;4.85;;;15.60;59.20;;;;;;10328961;28;20038;-55
2023/04/04 17:54:37;;;;;;;10.85;4.25;;;15.50;59.30;;;;;;10328917;28;20061;-56
2023/04/04 17:59:37;;;;;;;13.73;4.90;;;15.50;59.30;;;;;;10332867;28;20018;-56
2023/04/04 18:04:38;;;;;;;21.08;5.20;;;15.40;59.10;;;;;;10327964;28;20121;-56
2023/04/04 18:09:40;;;;;;;31.95;5.85;;;15.40;59.40;;;;;;10327818;28;20038;-55
2023/04/04 18:14:40;;;;;;;14.85;4.05;;;15.40;59.30;;;;;;10305986;28;20046;-55
2023/04/04 18:19:41;;;;;;;18.75;3.65;;;15.40;59.00;;;;;;10326468;28;20094;-55
2023/04/04 18:24:42;;;;;;;13.63;3.80;;;15.40;60.50;;;;;;10327146;28;20037;-55
2023/04/04 18:29:43;;;;;;;14.65;4.63;;;15.40;60.40;;;;;;10327550;28;20161;-55
2023/04/04 18:34:44;;;;;;;13.38;4.75;;;15.50;60.50;;;;;;10324917;28;20093;-55
2023/04/04 18:39:45;;;;;;;16.17;4.10;;;15.50;60.30;;;;;;10324383;28;20022;-55
2023/04/04 18:44:46;;;;;;;12.50;3.40;;;15.60;60.00;;;;;;10323981;28;20037;-53
2023/04/04 18:49:47;;;;;;;12.98;3.10;;;15.70;60.10;;;;;;10325156;28;20042;-54
2023/04/04 18:54:47;;;;;;;9.95;3.70;;;15.60;59.50;;;;;;10328430;28;20033;-53
2023/04/04 18:59:48;;;;;;;12.13;3.97;;;15.60;58.70;;;;;;10335652;28;20037;-54
2023/04/04 19:04:53;;;;;;;12.15;4.40;;;15.50;58.50;;;;;;10325607;28;20156;-54
2023/04/04 19:09:55;;;;;;;9.38;2.97;;;15.40;58.40;;;;;;10320029;28;20121;-54
2023/04/04 19:14:56;;;;;;;9.70;4.20;;;15.40;58.20;;;;;;10321229;28;20022;-54
2023/04/04 19:19:57;;;;;;;7.07;2.63;;;15.40;58.20;;;;;;10321794;28;20033;-55
2023/04/04 19:24:57;;;;;;;6.40;2.35;;;15.40;58.90;;;;;;10321272;28;20022;-55
2023/04/04 19:29:58;;;;;;;8.07;2.58;;;15.40;58.40;;;;;;10323753;28;20034;-52
2023/04/04 19:34:59;;;;;;;9.95;2.65;;;15.40;59.00;;;;;;10323865;28;20053;-54
2023/04/04 19:40:00;;;;;;;8.52;3.38;;;15.40;57.90;;;;;;10324771;28;20026;-54
2023/04/04 19:45:01;;;;;;;7.20;2.55;;;15.40;58.20;;;;;;10323836;28;20050;-55
2023/04/04 19:50:01;;;;;;;8.23;3.08;;;15.40;57.70;;;;;;10323357;28;20066;-54
2023/04/04 19:55:08;;;;;;;8.82;2.90;;;15.40;57.80;;;;;;10323343;28;20723;-54
2023/04/04 20:00:12;;;;;;;4.80;1.92;;;15.30;57.90;;;;;;10321945;28;20109;-56
2023/04/04 20:05:32;;;;;;;7.00;2.63;;;15.30;57.90;;;;;;10322884;28;20061;-55
2023/04/04 20:10:40;;;;;;;6.40;2.22;;;15.30;58.10;;;;;;10323496;28;20034;-55
2023/04/04 20:15:43;;;;;;;7.43;2.45;;;15.30;58.00;;;;;;10324295;28;20062;-54
2023/04/04 20:20:59;;;;;;;6.00;2.10;;;15.30;58.20;;;;;;10324116;28;20030;-55
2023/04/04 20:26:06;;;;;;;4.32;1.85;;;15.20;58.30;;;;;;10323044;28;20037;-55
2023/04/04 20:31:08;;;;;;;7.85;2.10;;;15.20;58.30;;;;;;10324072;28;20034;-55
2023/04/04 20:36:31;;;;;;;5.03;2.40;;;15.20;58.40;;;;;;10322922;28;20025;-56
2023/04/04 20:41:31;;;;;;;6.88;2.05;;;15.20;58.30;;;;;;10330078;28;20393;-54
2023/04/04 20:46:35;;;;;;;4.47;2.13;;;15.10;58.30;;;;;;10331817;28;20061;-55
2023/04/04 20:51:36;;;;;;;5.90;1.80;;;15.10;58.40;;;;;;10343837;28;20119;-55
2023/04/04 20:56:40;;;;;;;6.78;2.03;;;15.10;58.50;;;;;;10331765;28;20030;-54
2023/04/04 21:01:41;;;;;;;3.95;1.98;;;15.10;58.70;;;;;;10341512;28;20445;-55
2023/04/04 21:06:42;;;;;;;4.55;2.72;;;15.10;58.90;;;;;;10331358;28;20126;-54
2023/04/04 21:11:42;;;;;;;3.97;2.20;;;15.10;59.00;;;;;;10331108;28;20441;-55
2023/04/04 21:16:43;;;;;;;2.80;1.60;;;15.00;58.70;;;;;;10330940;28;20022;-54
2023/04/04 21:21:47;;;;;;;3.58;1.65;;;15.00;58.50;;;;;;10330899;28;20109;-53
2023/04/04 21:26:48;;;;;;;4.90;2.15;;;15.00;58.80;;;;;;10328570;28;20033;-54
2023/04/04 21:31:54;;;;;;;4.32;2.00;;;15.00;59.00;;;;;;10329897;28;20104;-55
2023/04/04 21:36:59;;;;;;;2.08;1.23;;;15.00;59.10;;;;;;10344457;28;20100;-55
2023/04/04 21:42:02;;;;;;;2.90;1.60;;;15.00;59.50;;;;;;10329480;28;20081;-54
2023/04/04 21:47:03;;;;;;;4.13;1.40;;;15.00;59.50;;;;;;10329200;28;20157;-54
2023/04/04 21:52:04;;;;;;;2.60;1.17;;;14.90;59.60;;;;;;10327820;28;20033;-53
2023/04/04 21:57:04;;;;;;;2.63;1.38;;;14.90;59.30;;;;;;10328760;28;20033;-54
2023/04/04 22:02:05;;;;;;;2.28;1.15;;;14.90;59.30;;;;;;10328732;28;20117;-54
2023/04/04 22:07:06;;;;;;;4.60;1.77;;;14.90;59.00;;;;;;10328217;28;20133;-55
2023/04/04 22:12:14;;;;;;;2.28;1.27;;;14.80;58.70;;;;;;10328305;28;20145;-55
2023/04/04 22:17:22;;;;;;;3.33;1.37;;;14.80;59.00;;;;;;10328328;28;20481;-55
2023/04/04 22:22:28;;;;;;;5.45;1.75;;;14.80;58.50;;;;;;10328111;28;20030;-55
2023/04/04 22:27:38;;;;;;;3.50;1.55;;;14.80;58.40;;;;;;10327510;28;20045;-54
2023/04/04 22:32:42;;;;;;;3.88;1.70;;;14.80;58.70;;;;;;10326155;28;20034;-55
2023/04/04 22:37:44;;;;;;;2.70;1.60;;;14.80;58.30;;;;;;10327020;28;20033;-54
2023/04/04 22:42:45;;;;;;;2.38;1.52;;;14.80;58.10;;;;;;10327273;28;20045;-54
2023/04/04 22:47:46;;;;;;;2.15;1.33;;;14.80;58.00;;;;;;10325783;28;20424;-53
2023/04/04 22:52:47;;;;;;;3.67;1.60;;;14.70;57.80;;;;;;10337032;28;20109;-54
2023/04/04 22:57:48;;;;;;;3.55;1.40;;;14.70;57.90;;;;;;10331791;28;20022;-53
2023/04/04 23:02:52;;;;;;;2.00;1.02;;;14.70;58.00;;;;;;10337916;28;20042;-55
2023/04/04 23:07:53;;;;;;;2.45;1.60;;;14.70;57.90;;;;;;10330668;28;20046;-54
2023/04/04 23:12:54;;;;;;;3.20;1.60;;;14.70;57.70;;;;;;10326172;28;20193;-54
2023/04/04 23:17:54;;;;;;;2.75;1.60;;;14.70;57.70;;;;;;10325427;28;20089;-55
2023/04/04 23:22:55;;;;;;;2.47;1.27;;;14.70;57.70;;;;;;10326012;28;20113;-54
2023/04/04 23:27:56;;;;;;;3.95;1.63;;;14.60;57.40;;;;;;10325532;28;20173;-54
2023/04/04 23:32:56;;;;;;;3.13;1.80;;;14.60;57.70;;;;;;10324888;28;20122;-54
2023/04/04 23:37:57;;;;;;;1.70;1.20;;;14.60;57.40;;;;;;10320109;28;20456;-55
2023/04/04 23:42:58;;;;;;;2.47;1.45;;;14.60;57.40;;;;;;10314468;28;20082;-54
2023/04/04 23:47:58;;;;;;;1.52;1.05;;;14.60;57.40;;;;;;10323232;28;20573;-55
2023/04/04 23:52:59;;;;;;;2.17;1.52;;;14.60;57.30;;;;;;10323779;28;20110;-55
2023/04/04 23:58:02;;;;;;;4.50;1.83;;;14.60;57.40;;;;;;10335194;28;20045;-54
